createdAt,value
2019-02-23T00:05:00.516Z,74.60
2019-02-23T00:07:54.412Z,74.50
2019-02-23T00:10:43.020Z,74.80
2019-02-23T00:13:51.060Z,74.60
2019-02-23T00:16:55.972Z,73.80
2019-02-23T00:19:40.940Z,73.90
2019-02-23T00:22:45.133Z,73.70
2019-02-23T00:25:27.842Z,73.60
2019-02-23T00:28:45.708Z,73.70
2019-02-23T00:30:56.050Z,73.60
2019-02-23T00:52:53.347Z,73.30
2019-02-23T00:55:45.461Z,73.10
2019-02-23T00:58:37.853Z,73.30
2019-02-23T01:01:37.694Z,73.80
2019-02-23T01:04:36.732Z,74.30
2019-02-23T01:07:39.645Z,74.70
2019-02-23T01:10:58.476Z,74.90
2019-02-23T01:13:38.525Z,74.60
2019-02-23T01:17:00.837Z,74.60
2019-02-23T01:21:12.872Z,74.50
2019-02-23T01:22:40.247Z,74.90
2019-02-23T01:28:11.848Z,74.70
2019-02-23T01:31:13.720Z,75.00
2019-02-23T01:38:57.386Z,75.10
2019-02-23T01:44:30.346Z,76.30
2019-02-23T01:47:45.104Z,76.00
2019-02-23T01:50:36.120Z,76.50
2019-02-23T01:55:52.633Z,77.80
2019-02-23T01:58:44.714Z,77.50
2019-02-23T02:04:08.775Z,76.50
2019-02-23T02:07:01.605Z,76.10
2019-02-23T02:14:27.985Z,76.00
2019-02-23T02:19:01.297Z,76.40
2019-02-23T02:21:44.689Z,77.20
2019-02-23T02:24:28.583Z,77.20
2019-02-23T02:30:02.661Z,76.80
2019-02-23T02:33:08.618Z,76.80
2019-02-23T02:35:26.761Z,76.70
2019-02-23T02:38:42.295Z,77.00
2019-02-23T02:44:02.787Z,77.70
2019-02-23T02:46:59.774Z,78.40
2019-02-23T02:49:51.788Z,78.30
2019-02-23T02:52:30.527Z,78.10
2019-02-23T02:55:21.620Z,78.40
2019-02-23T02:58:15.268Z,78.20
2019-02-23T03:01:35.823Z,78.40
2019-02-23T03:07:18.175Z,78.80
2019-02-23T03:09:40.593Z,79.10
2019-02-23T03:12:43.432Z,79.00
2019-02-23T03:17:25.969Z,79.00
2019-02-23T03:18:38.606Z,78.70
2019-02-23T03:24:42.817Z,77.90
2019-02-23T03:27:38.878Z,77.90
2019-02-23T03:36:01.657Z,76.60
2019-02-23T03:41:49.329Z,75.90
2019-02-23T03:45:34.992Z,76.10
2019-02-23T03:51:24.496Z,76.80
2019-02-23T04:00:15.044Z,76.20
2019-02-23T04:06:24.245Z,74.50
2019-02-23T04:08:58.459Z,73.40
2019-02-23T04:17:01.259Z,74.20
2019-02-23T04:20:10.044Z,74.80
2019-02-23T04:23:44.314Z,74.80
2019-02-23T04:25:49.118Z,74.90
2019-02-23T04:31:09.210Z,75.40
2019-02-23T04:34:11.170Z,75.10
2019-02-23T04:36:53.262Z,73.90
2019-02-23T04:55:13.873Z,72.90
2019-02-23T04:57:51.163Z,73.00
2019-02-23T05:00:44.860Z,72.80
2019-02-23T05:03:26.117Z,72.70
2019-02-23T05:14:13.357Z,72.10
2019-02-23T05:16:57.497Z,72.40
2019-02-23T05:20:00.586Z,72.30
2019-02-23T05:25:38.218Z,72.20
2019-02-23T05:28:15.831Z,72.20
2019-02-23T05:31:09.671Z,72.00
2019-02-23T05:34:07.361Z,72.10
2019-02-23T05:36:42.577Z,72.20
2019-02-23T05:39:12.333Z,71.70
2019-02-23T05:44:33.159Z,71.70
2019-02-23T05:47:40.638Z,71.70
2019-02-23T06:00:07.210Z,73.30
2019-02-23T06:02:45.791Z,73.30
2019-02-23T06:05:49.884Z,73.10
2019-02-23T06:08:36.196Z,72.60
2019-02-23T06:14:05.579Z,71.60
2019-02-23T06:22:04.120Z,71.60
2019-02-23T06:27:48.073Z,70.70
2019-02-23T06:30:26.115Z,70.70
2019-02-23T06:33:09.380Z,70.70
2019-02-23T06:36:05.017Z,70.60
2019-02-23T06:38:47.555Z,70.90
2019-02-23T06:41:23.848Z,70.00
2019-02-23T06:44:08.386Z,69.50
2019-02-23T06:46:54.830Z,69.20
2019-02-23T06:49:42.606Z,68.80
2019-02-23T06:53:45.831Z,68.90
2019-02-23T06:58:29.417Z,68.20
2019-02-23T07:01:11.754Z,67.90
2019-02-23T07:04:19.147Z,67.30
2019-02-23T07:07:12.236Z,67.80
2019-02-23T07:09:52.224Z,67.50
2019-02-23T07:12:32.717Z,66.90
2019-02-23T07:18:38.518Z,66.20
2019-02-23T07:22:15.425Z,66.50
2019-02-23T07:27:49.911Z,65.30
2019-02-23T07:29:42.953Z,65.60
2019-02-23T07:33:04.416Z,66.10
2019-02-23T07:39:13.897Z,66.10
2019-02-23T08:04:06.809Z,64.60
2019-02-23T12:26:01.298Z,44.20
2019-02-23T12:35:00.946Z,45.40
2019-02-23T12:37:53.339Z,44.50
2019-02-23T13:40:42.767Z,44.70
2019-02-23T13:44:04.260Z,43.90
2019-02-23T13:46:52.247Z,43.00
2019-02-23T13:49:59.956Z,44.10
2019-02-23T13:52:47.556Z,45.30
2019-02-23T13:56:03.041Z,46.20
2019-02-23T13:58:54.302Z,44.30
2019-02-23T14:01:49.807Z,45.90
2019-02-23T14:04:57.753Z,44.60
2019-02-23T14:08:11.634Z,44.90
2019-02-23T14:11:12.566Z,46.50
2019-02-23T14:14:07.513Z,44.70
2019-02-23T14:17:05.356Z,45.70
2019-02-23T14:20:29.434Z,46.40
2019-02-23T14:23:45.875Z,46.80
2019-02-23T14:26:41.103Z,46.20
2019-02-23T14:29:33.902Z,47.50
2019-02-23T14:32:28.796Z,45.40
2019-02-23T14:35:39.572Z,45.30
2019-02-23T14:38:35.122Z,45.80
2019-02-23T14:41:27.812Z,45.70
2019-02-23T14:44:23.975Z,46.90
2019-02-23T14:47:16.431Z,46.20
2019-02-23T14:50:06.104Z,46.80
2019-02-23T14:53:18.024Z,46.80
2019-02-23T14:56:04.453Z,46.70
2019-02-23T14:59:37.460Z,46.50
2019-02-23T15:02:36.254Z,45.80
2019-02-23T15:05:23.193Z,47.80
2019-02-23T15:08:36.124Z,47.50
2019-02-23T15:11:23.121Z,47.80
2019-02-23T15:14:30.737Z,46.30
2019-02-23T15:17:43.887Z,47.40
2019-02-23T15:20:49.103Z,48.60
2019-02-23T15:23:48.209Z,49.00
2019-02-23T15:27:09.379Z,48.70
2019-02-23T15:30:29.769Z,48.00
2019-02-23T15:33:32.533Z,49.00
2019-02-23T15:36:59.785Z,49.30
2019-02-23T15:40:08.301Z,49.20
2019-02-23T15:43:11.059Z,50.10
2019-02-23T15:45:58.240Z,49.70
2019-02-23T15:49:08.890Z,49.00
2019-02-23T15:51:51.848Z,48.60
2019-02-23T15:54:40.615Z,50.20
2019-02-23T15:57:16.492Z,49.60
2019-02-23T15:59:58.717Z,50.20
2019-02-23T16:02:35.371Z,50.00
2019-02-23T16:05:10.862Z,49.70
2019-02-23T16:07:47.133Z,50.00
2019-02-23T16:10:17.836Z,49.60
2019-02-23T16:12:53.167Z,49.90
2019-02-23T16:15:22.360Z,50.50
2019-02-23T16:18:04.383Z,50.40
2019-02-23T16:20:46.621Z,50.50
2019-02-23T16:23:22.000Z,50.70
2019-02-23T16:26:03.508Z,51.10
2019-02-23T16:28:32.674Z,51.00
2019-02-23T16:31:15.166Z,51.90
2019-02-23T16:33:50.873Z,51.70
2019-02-23T16:36:26.276Z,51.60
2019-02-23T16:39:02.079Z,51.80
2019-02-23T16:41:37.700Z,52.20
2019-02-23T16:44:19.988Z,51.60
2019-02-23T16:47:03.769Z,51.50
2019-02-23T16:49:45.559Z,52.10
2019-02-23T16:52:28.052Z,51.50
2019-02-23T16:55:09.539Z,52.00
2019-02-23T16:57:52.026Z,52.20
2019-02-23T17:00:27.309Z,52.90
2019-02-23T17:03:10.185Z,53.30
2019-02-23T17:05:39.369Z,52.90
2019-02-23T17:08:22.079Z,53.00
2019-02-23T17:10:58.836Z,53.10
2019-02-23T17:13:41.048Z,53.20
2019-02-23T17:16:23.650Z,53.20
2019-02-23T17:18:58.940Z,53.00
2019-02-23T17:21:41.465Z,53.70
2019-02-23T17:24:17.321Z,53.60
2019-02-23T17:26:53.798Z,53.70
2019-02-23T17:29:36.623Z,53.50
2019-02-23T17:32:05.824Z,53.40
2019-02-23T17:34:47.984Z,53.70
2019-02-23T17:37:32.266Z,53.70
2019-02-23T17:40:09.026Z,53.90
2019-02-23T17:42:46.316Z,54.50
2019-02-23T17:45:23.878Z,54.50
2019-02-23T17:48:06.330Z,54.30
2019-02-23T17:50:44.698Z,54.90
2019-02-23T17:53:20.706Z,54.80
2019-02-23T17:55:56.792Z,55.40
2019-02-23T17:58:33.034Z,55.60
2019-02-23T18:01:08.591Z,55.60
2019-02-23T18:03:51.286Z,55.60
2019-02-23T18:06:33.772Z,55.80
2019-02-23T18:09:16.868Z,56.10
2019-02-23T18:11:58.856Z,56.10
2019-02-23T18:14:34.747Z,55.90
2019-02-23T18:17:10.584Z,56.00
2019-02-23T18:19:52.744Z,56.40
2019-02-23T18:22:37.021Z,56.40
2019-02-23T18:25:12.463Z,56.00
2019-02-23T18:27:54.499Z,56.40
2019-02-23T18:30:30.537Z,56.90
2019-02-23T18:33:13.609Z,56.80
2019-02-23T18:35:49.001Z,56.90
2019-02-23T18:38:24.819Z,57.10
2019-02-23T18:41:00.997Z,56.90
2019-02-23T18:43:43.538Z,57.00
2019-02-23T18:46:19.448Z,57.10
2019-02-23T18:49:01.566Z,57.00
2019-02-23T18:51:30.764Z,57.30
2019-02-23T18:54:06.979Z,56.80
2019-02-23T18:56:49.295Z,57.10
2019-02-23T18:59:25.504Z,57.00
2019-02-23T19:02:07.237Z,58.00
2019-02-23T19:04:42.425Z,57.60
2019-02-23T19:07:19.415Z,57.00
2019-02-23T19:09:55.279Z,57.20
2019-02-23T19:12:38.675Z,57.20
2019-02-23T19:15:21.557Z,57.40
2019-02-23T19:17:57.227Z,57.80
2019-02-23T19:20:33.307Z,57.60
2019-02-23T19:23:09.568Z,57.90
2019-02-23T19:25:45.650Z,57.90
2019-02-23T19:28:21.036Z,57.70
2019-02-23T19:30:57.233Z,58.00
2019-02-23T19:33:32.988Z,57.60
2019-02-23T19:36:02.207Z,57.00
2019-02-23T19:38:37.823Z,56.90
2019-02-23T19:41:07.116Z,56.20
2019-02-23T19:43:49.861Z,56.60
2019-02-23T19:46:26.483Z,56.60
2019-02-23T19:49:08.784Z,56.50
2019-02-23T19:51:44.362Z,56.50
2019-02-23T19:54:20.525Z,56.30
2019-02-23T19:56:56.264Z,56.40
2019-02-23T19:59:31.945Z,56.40
2019-02-23T20:02:20.846Z,55.40
2019-02-23T20:04:56.137Z,55.50
2019-02-23T20:07:38.099Z,55.70
2019-02-23T20:10:14.191Z,55.90
2019-02-23T20:12:49.840Z,55.70
2019-02-23T20:15:25.950Z,56.20
2019-02-23T20:18:08.698Z,55.20
2019-02-23T20:20:44.593Z,55.50
2019-02-23T20:23:21.043Z,55.10
2019-02-23T20:25:57.132Z,54.80
2019-02-23T20:28:32.983Z,55.00
2019-02-23T20:31:16.640Z,54.10
2019-02-23T20:33:52.559Z,53.30
2019-02-23T20:36:28.266Z,53.70
2019-02-23T20:38:57.462Z,53.60
2019-02-23T20:41:40.647Z,53.30
2019-02-23T20:44:16.798Z,52.60
2019-02-23T20:46:52.216Z,52.50
2019-02-23T20:49:34.515Z,51.90
2019-02-23T20:52:10.577Z,52.20
2019-02-23T20:54:52.808Z,52.60
2019-02-23T20:57:29.122Z,52.80
2019-02-23T21:00:05.523Z,53.00
2019-02-23T21:02:34.708Z,52.90
2019-02-23T21:05:17.992Z,52.90
2019-02-23T21:07:54.324Z,53.10
2019-02-23T21:10:37.306Z,53.40
2019-02-23T21:13:13.100Z,53.30
2019-02-23T21:15:49.084Z,53.50
2019-02-23T21:18:25.400Z,53.00
2019-02-23T21:21:01.443Z,53.20
2019-02-23T21:23:43.502Z,53.60
2019-02-23T21:26:19.710Z,53.60
2019-02-23T21:29:01.848Z,53.30
2019-02-23T21:31:44.656Z,53.80
2019-02-23T21:34:20.233Z,54.10
2019-02-23T21:37:02.641Z,54.30
2019-02-23T21:39:37.865Z,54.60
2019-02-23T21:42:14.897Z,54.80
2019-02-23T21:44:50.255Z,54.80
2019-02-23T21:47:26.239Z,54.20
2019-02-23T21:50:06.653Z,54.80
2019-02-23T21:52:45.166Z,54.20
2019-02-23T21:55:21.048Z,53.30
2019-02-23T21:57:56.369Z,52.90
2019-02-23T22:00:31.575Z,52.30
2019-02-23T22:03:14.087Z,52.60
2019-02-23T22:05:57.102Z,53.20
2019-02-23T22:08:33.614Z,52.60
2019-02-23T22:11:09.672Z,53.20
2019-02-23T22:13:45.219Z,52.20
2019-02-23T22:16:20.873Z,52.60
2019-02-23T22:18:56.727Z,52.30
2019-02-23T22:21:32.439Z,52.30
2019-02-23T22:24:08.490Z,52.90
2019-02-23T22:26:50.508Z,52.50
2019-02-23T22:29:19.776Z,52.70
2019-02-23T22:31:55.153Z,53.30
2019-02-23T22:34:30.708Z,53.10
2019-02-23T22:37:06.418Z,53.30
2019-02-23T22:39:48.609Z,53.30
2019-02-23T22:42:30.471Z,53.40
2019-02-23T22:45:14.980Z,52.40
2019-02-23T22:47:56.878Z,53.10
2019-02-23T22:50:38.147Z,52.70
2019-02-23T22:53:07.326Z,52.90
2019-02-23T22:55:50.213Z,52.90
2019-02-23T22:58:26.180Z,52.40
2019-02-23T23:01:09.293Z,52.60
2019-02-23T23:03:44.818Z,52.50
2019-02-23T23:06:27.839Z,52.40
2019-02-23T23:09:03.426Z,52.30
2019-02-23T23:11:45.570Z,52.90
2019-02-23T23:14:21.087Z,52.20
2019-02-23T23:17:03.740Z,52.90
2019-02-23T23:19:38.926Z,53.20
2019-02-23T23:22:20.779Z,53.30
2019-02-23T23:25:02.661Z,53.40
2019-02-23T23:27:49.384Z,53.30
2019-02-23T23:30:22.636Z,53.20
2019-02-23T23:33:05.035Z,53.00
2019-02-23T23:35:47.125Z,54.00
2019-02-23T23:38:29.193Z,54.50
2019-02-23T23:41:05.135Z,54.00
2019-02-23T23:43:47.643Z,53.90
2019-02-23T23:46:37.110Z,54.70
2019-02-23T23:49:06.292Z,55.10
2019-02-23T23:51:35.475Z,54.80
2019-02-23T23:54:11.564Z,55.10
2019-02-23T23:56:53.965Z,55.30
2019-02-23T23:59:30.198Z,55.30
